createdAt,value
2022-09-17T00:01:24.314Z,16.93
2022-09-17T00:03:56.430Z,16.93
2022-09-17T00:06:25.491Z,16.80
2022-09-17T00:08:54.008Z,16.65
2022-09-17T00:11:27.401Z,16.57
2022-09-17T00:13:55.803Z,16.62
2022-09-17T00:16:35.173Z,16.69
2022-09-17T00:19:04.569Z,16.63
2022-09-17T00:21:32.203Z,16.64
2022-09-17T00:24:02.368Z,16.61
2022-09-17T00:26:31.050Z,16.60
2022-09-17T00:28:59.382Z,16.55
2022-09-17T00:31:28.714Z,16.63
2022-09-17T00:33:56.310Z,16.68
2022-09-17T00:36:23.712Z,16.66
2022-09-17T00:38:55.881Z,16.67
2022-09-17T00:41:25.959Z,16.64
2022-09-17T00:43:58.752Z,16.62
2022-09-17T00:46:38.373Z,16.71
2022-09-17T00:49:32.662Z,16.65
2022-09-17T00:52:06.050Z,16.80
2022-09-17T00:54:35.148Z,16.80
2022-09-17T00:57:02.726Z,16.69
2022-09-17T00:59:30.112Z,16.59
2022-09-17T01:01:57.951Z,16.62
2022-09-17T01:04:26.905Z,16.46
2022-09-17T01:07:26.588Z,16.29
2022-09-17T01:10:06.335Z,16.27
2022-09-17T01:12:54.457Z,16.18
2022-09-17T01:15:41.103Z,16.24
2022-09-17T01:18:22.606Z,16.18
2022-09-17T01:21:16.786Z,16.34
2022-09-17T01:24:06.365Z,16.46
2022-09-17T01:26:54.851Z,16.62
2022-09-17T01:29:50.165Z,16.59
2022-09-17T01:32:36.869Z,16.48
2022-09-17T01:35:48.533Z,16.39
2022-09-17T01:38:32.958Z,16.29
2022-09-17T01:41:20.099Z,16.27
2022-09-17T01:44:12.628Z,16.26
2022-09-17T01:47:02.832Z,16.29
2022-09-17T01:49:32.529Z,16.11
2022-09-17T01:52:01.534Z,15.97
2022-09-17T01:54:41.825Z,15.82
2022-09-17T01:57:17.012Z,15.73
2022-09-17T02:00:02.498Z,15.63
2022-09-17T02:02:41.760Z,15.56
2022-09-17T02:05:16.073Z,15.40
2022-09-17T02:07:52.429Z,15.35
2022-09-17T02:10:27.284Z,15.27
2022-09-17T02:13:02.623Z,15.24
2022-09-17T02:15:35.625Z,15.23
2022-09-17T02:18:10.675Z,15.11
2022-09-17T02:20:48.772Z,15.03
2022-09-17T02:23:22.882Z,14.88
2022-09-17T02:25:55.971Z,14.84
2022-09-17T02:28:30.956Z,14.78
2022-09-17T02:30:58.398Z,14.73
2022-09-17T02:33:27.331Z,14.61
2022-09-17T02:35:54.687Z,14.57
2022-09-17T02:38:26.780Z,14.48
2022-09-17T02:41:23.088Z,14.44
2022-09-17T02:43:56.946Z,14.39
2022-09-17T02:46:42.250Z,14.26
2022-09-17T02:49:27.939Z,14.24
2022-09-17T02:52:17.272Z,14.22
2022-09-17T02:54:59.604Z,13.98
2022-09-17T02:58:06.407Z,13.76
2022-09-17T03:00:34.072Z,13.53
2022-09-17T03:03:08.813Z,13.50
2022-09-17T03:05:38.679Z,13.49
2022-09-17T03:08:08.940Z,13.44
2022-09-17T03:10:36.942Z,13.35
2022-09-17T03:13:04.553Z,13.38
2022-09-17T03:15:31.853Z,13.57
2022-09-17T03:17:59.084Z,13.63
2022-09-17T03:20:26.342Z,13.67
2022-09-17T03:22:53.552Z,13.47
2022-09-17T03:25:20.826Z,13.36
2022-09-17T03:27:48.341Z,13.31
2022-09-17T03:30:15.659Z,13.26
2022-09-17T03:32:42.903Z,13.32
2022-09-17T03:35:10.168Z,13.41
2022-09-17T03:37:37.444Z,13.52
2022-09-17T03:40:05.640Z,13.57
2022-09-17T03:42:32.946Z,13.46
2022-09-17T03:45:00.259Z,13.52
2022-09-17T03:47:27.567Z,13.54
2022-09-17T03:49:54.800Z,13.47
2022-09-17T03:52:22.130Z,13.56
2022-09-17T03:54:49.372Z,13.62
2022-09-17T03:57:16.962Z,13.68
2022-09-17T03:59:44.239Z,13.67
2022-09-17T04:02:11.651Z,13.64
2022-09-17T04:04:39.005Z,13.74
2022-09-17T04:07:06.447Z,13.56
2022-09-17T04:09:35.371Z,13.54
2022-09-17T04:12:03.202Z,13.50
2022-09-17T04:14:30.938Z,13.59
2022-09-17T04:16:59.201Z,13.43
2022-09-17T04:19:26.506Z,13.34
2022-09-17T04:21:53.870Z,13.24
2022-09-17T04:24:21.113Z,13.15
2022-09-17T04:26:50.925Z,13.08
2022-09-17T04:29:18.286Z,13.00
2022-09-17T04:31:45.942Z,12.97
2022-09-17T04:34:13.201Z,13.02
2022-09-17T04:36:40.464Z,13.04
2022-09-17T04:39:08.676Z,13.09
2022-09-17T04:41:35.925Z,12.91
2022-09-17T04:44:03.167Z,12.90
2022-09-17T04:46:30.489Z,12.94
2022-09-17T04:48:57.897Z,12.95
2022-09-17T04:51:25.200Z,12.91
2022-09-17T04:53:52.648Z,13.05
2022-09-17T04:56:20.467Z,13.16
2022-09-17T04:58:47.784Z,13.13
2022-09-17T05:01:18.670Z,12.87
2022-09-17T05:03:46.127Z,13.05
2022-09-17T05:06:13.506Z,13.03
2022-09-17T05:08:40.730Z,13.01
2022-09-17T05:11:07.978Z,12.96
2022-09-17T05:13:35.259Z,12.79
2022-09-17T05:16:02.802Z,12.67
2022-09-17T05:18:30.027Z,12.69
2022-09-17T05:20:57.251Z,12.72
2022-09-17T05:23:24.591Z,12.84
2022-09-17T05:25:52.900Z,12.98
2022-09-17T05:28:20.121Z,13.06
2022-09-17T05:30:47.436Z,12.98
2022-09-17T05:33:14.769Z,13.21
2022-09-17T05:35:44.186Z,13.26
2022-09-17T05:38:11.574Z,12.99
2022-09-17T05:40:38.905Z,13.04
2022-09-17T05:43:08.075Z,13.15
2022-09-17T05:45:36.169Z,13.07
2022-09-17T05:48:05.729Z,12.95
2022-09-17T05:50:33.588Z,12.93
2022-09-17T05:53:05.769Z,12.98
2022-09-17T05:55:35.229Z,12.89
2022-09-17T05:58:19.250Z,12.98
2022-09-17T06:00:47.555Z,13.05
2022-09-17T06:03:16.749Z,12.93
2022-09-17T06:05:53.446Z,12.97
2022-09-17T06:08:21.070Z,12.94
2022-09-17T06:10:48.416Z,13.12
2022-09-17T06:13:20.168Z,13.40
2022-09-17T06:15:54.243Z,13.44
2022-09-17T06:18:21.740Z,13.50
2022-09-17T06:20:56.723Z,13.24
2022-09-17T06:23:24.366Z,13.32
2022-09-17T06:25:56.972Z,13.40
2022-09-17T06:28:25.381Z,13.38
2022-09-17T06:30:54.566Z,13.22
2022-09-17T06:33:22.633Z,13.09
2022-09-17T06:35:56.015Z,13.24
2022-09-17T06:38:23.223Z,13.31
2022-09-17T06:40:52.048Z,13.22
2022-09-17T06:43:20.013Z,13.23
2022-09-17T06:46:01.487Z,13.36
2022-09-17T06:48:30.308Z,13.34
2022-09-17T06:51:02.780Z,13.57
2022-09-17T06:53:31.241Z,13.52
2022-09-17T06:56:05.222Z,13.22
2022-09-17T06:58:34.799Z,13.28
2022-09-17T07:01:02.769Z,13.28
2022-09-17T07:03:31.321Z,13.30
2022-09-17T07:05:58.663Z,13.55
2022-09-17T07:08:26.230Z,13.30
2022-09-17T07:10:57.330Z,13.00
2022-09-17T07:13:25.187Z,13.31
2022-09-17T07:15:57.525Z,13.34
2022-09-17T07:18:25.496Z,13.10
2022-09-17T07:21:06.116Z,13.14
2022-09-17T07:23:35.682Z,13.24
2022-09-17T07:26:08.386Z,13.44
2022-09-17T07:28:39.165Z,13.59
2022-09-17T07:31:08.709Z,13.79
2022-09-17T07:33:39.771Z,13.99
2022-09-17T07:36:10.991Z,14.07
2022-09-17T07:38:39.605Z,14.06
2022-09-17T07:41:14.652Z,14.26
2022-09-17T07:43:43.132Z,13.82
2022-09-17T07:46:17.424Z,13.95
2022-09-17T07:48:46.235Z,13.76
2022-09-17T07:51:21.991Z,14.00
2022-09-17T07:53:53.471Z,13.95
2022-09-17T07:56:21.238Z,14.07
2022-09-17T07:58:48.813Z,13.84
2022-09-17T08:01:17.316Z,14.12
2022-09-17T08:03:50.557Z,14.13
2022-09-17T08:06:20.155Z,14.17
2022-09-17T08:08:47.547Z,14.19
2022-09-17T08:11:38.257Z,13.89
2022-09-17T08:14:10.429Z,13.85
2022-09-17T08:16:37.800Z,14.14
2022-09-17T08:19:05.063Z,14.19
2022-09-17T08:21:32.352Z,13.83
2022-09-17T08:23:59.612Z,13.69
2022-09-17T08:26:27.895Z,14.00
2022-09-17T08:28:56.540Z,14.10
2022-09-17T08:31:26.732Z,13.93
2022-09-17T08:33:54.203Z,14.11
2022-09-17T08:36:22.925Z,13.83
2022-09-17T08:38:53.824Z,13.69
2022-09-17T08:41:41.541Z,13.59
2022-09-17T08:44:17.940Z,13.61
2022-09-17T08:47:07.156Z,13.63
2022-09-17T08:49:40.583Z,13.66
2022-09-17T08:52:30.069Z,13.50
2022-09-17T08:55:11.690Z,13.70
2022-09-17T08:58:03.823Z,13.57
2022-09-17T09:00:51.705Z,13.63
2022-09-17T09:03:42.893Z,13.76
2022-09-17T09:06:11.992Z,13.79
2022-09-17T09:08:55.869Z,14.06
2022-09-17T09:11:27.504Z,14.35
2022-09-17T09:14:13.037Z,14.15
2022-09-17T09:16:42.795Z,14.03
2022-09-17T09:19:43.469Z,13.83
2022-09-17T09:22:19.777Z,14.06
2022-09-17T09:24:53.155Z,14.45
2022-09-17T09:27:35.966Z,14.48
2022-09-17T09:30:12.122Z,14.70
2022-09-17T09:33:18.419Z,14.90
2022-09-17T09:35:45.768Z,14.73
2022-09-17T09:38:24.793Z,14.83
2022-09-17T09:40:58.513Z,14.95
2022-09-17T09:44:02.198Z,15.07
2022-09-17T09:46:44.534Z,15.20
2022-09-17T09:49:41.368Z,14.98
2022-09-17T09:52:20.385Z,14.67
2022-09-17T09:55:04.204Z,14.78
2022-09-17T09:57:45.853Z,14.78
2022-09-17T10:00:29.054Z,14.72
2022-09-17T10:03:10.839Z,14.68
2022-09-17T10:05:38.354Z,14.90
2022-09-17T10:08:16.182Z,14.98
2022-09-17T10:10:59.282Z,15.18
2022-09-17T10:13:27.899Z,15.53
2022-09-17T10:15:55.268Z,15.70
2022-09-17T10:18:24.690Z,15.70
2022-09-17T10:20:55.941Z,15.87
2022-09-17T10:23:25.915Z,16.07
2022-09-17T10:25:55.787Z,16.24
2022-09-17T10:28:37.070Z,15.94
2022-09-17T10:31:11.232Z,16.20
2022-09-17T10:33:50.460Z,16.62
2022-09-17T10:36:37.809Z,16.34
2022-09-17T10:39:27.116Z,15.90
2022-09-17T10:42:14.880Z,15.89
2022-09-17T10:44:58.444Z,15.91
2022-09-17T10:47:37.299Z,15.87
2022-09-17T10:50:16.741Z,15.55
2022-09-17T10:52:55.915Z,15.37
2022-09-17T10:55:44.684Z,15.63
2022-09-17T10:58:32.940Z,15.65
2022-09-17T11:01:26.903Z,15.62
2022-09-17T11:04:27.899Z,15.10
2022-09-17T11:07:23.393Z,14.92
2022-09-17T11:10:10.475Z,15.00
2022-09-17T11:12:45.638Z,14.83
2022-09-17T11:15:30.114Z,14.72
2022-09-17T11:18:20.733Z,14.57
2022-09-17T11:20:57.970Z,14.47
2022-09-17T11:23:46.706Z,14.38
2022-09-17T11:26:39.296Z,14.31
2022-09-17T11:29:21.455Z,14.39
2022-09-17T11:31:54.442Z,14.48
2022-09-17T11:34:38.791Z,14.32
2022-09-17T11:37:13.529Z,14.33
2022-09-17T11:39:55.680Z,14.59
2022-09-17T11:42:30.987Z,14.79
2022-09-17T11:45:06.174Z,14.69
2022-09-17T11:47:40.538Z,14.60
2022-09-17T11:50:21.135Z,14.58
2022-09-17T11:53:14.964Z,15.04
2022-09-17T11:55:53.803Z,15.01
2022-09-17T11:58:41.564Z,14.78
2022-09-17T12:01:17.132Z,14.52
2022-09-17T12:03:53.316Z,14.43
2022-09-17T12:06:28.837Z,14.26
2022-09-17T12:09:03.358Z,14.22
2022-09-17T12:12:01.965Z,14.23
2022-09-17T12:14:50.903Z,14.15
2022-09-17T12:17:34.947Z,14.21
2022-09-17T12:20:10.042Z,14.20
2022-09-17T12:22:42.121Z,14.32
2022-09-17T12:25:13.304Z,14.53
2022-09-17T12:28:00.727Z,14.38
2022-09-17T12:30:38.763Z,14.27
2022-09-17T12:33:30.943Z,14.26
2022-09-17T12:36:19.880Z,14.34
2022-09-17T12:38:52.704Z,14.41
2022-09-17T12:41:29.048Z,14.50
2022-09-17T12:44:18.149Z,14.51
2022-09-17T12:47:06.465Z,14.51
2022-09-17T12:50:13.092Z,14.41
2022-09-17T12:53:15.862Z,14.54
2022-09-17T12:56:02.366Z,14.31
2022-09-17T12:58:53.241Z,14.21
2022-09-17T13:01:44.770Z,14.21
2022-09-17T13:04:18.996Z,14.32
2022-09-17T13:07:08.017Z,14.28
2022-09-17T13:10:17.164Z,14.04
2022-09-17T13:13:11.045Z,14.09
2022-09-17T13:16:17.012Z,14.00
2022-09-17T13:19:23.547Z,13.99
2022-09-17T13:22:00.471Z,13.86
2022-09-17T13:24:31.409Z,13.98
2022-09-17T13:27:01.321Z,13.97
2022-09-17T13:29:43.569Z,14.10
2022-09-17T13:32:32.201Z,14.10
2022-09-17T13:35:11.139Z,14.12
2022-09-17T13:37:55.069Z,14.23
2022-09-17T13:40:34.368Z,14.13
2022-09-17T13:43:04.536Z,14.13
2022-09-17T13:45:33.797Z,14.02
2022-09-17T13:48:06.023Z,14.01
2022-09-17T13:50:41.772Z,14.17
2022-09-17T13:53:21.410Z,14.34
2022-09-17T13:55:56.981Z,14.38
2022-09-17T13:58:28.388Z,14.24
2022-09-17T14:00:58.138Z,14.21
2022-09-17T14:03:31.482Z,14.37
2022-09-17T14:06:19.475Z,14.45
2022-09-17T14:08:49.579Z,14.19
2022-09-17T14:11:22.626Z,14.05
2022-09-17T14:14:05.205Z,13.99
2022-09-17T14:16:47.144Z,14.08
2022-09-17T14:19:51.254Z,14.07
2022-09-17T14:22:26.736Z,14.05
2022-09-17T14:24:55.294Z,14.11
2022-09-17T14:27:36.560Z,14.09
2022-09-17T14:30:12.628Z,14.11
2022-09-17T14:32:46.799Z,14.01
2022-09-17T14:35:20.163Z,13.96
2022-09-17T14:38:25.144Z,13.87
2022-09-17T14:41:01.305Z,13.96
2022-09-17T14:43:52.840Z,13.85
2022-09-17T14:46:24.422Z,13.90
2022-09-17T14:48:51.949Z,13.85
2022-09-17T14:51:19.181Z,13.82
2022-09-17T14:54:14.467Z,13.87
2022-09-17T14:57:02.004Z,13.95
2022-09-17T14:59:43.318Z,14.01
2022-09-17T15:02:33.673Z,14.00
2022-09-17T15:05:03.922Z,14.07
2022-09-17T15:07:31.470Z,14.03
2022-09-17T15:10:23.509Z,14.12
2022-09-17T15:12:51.497Z,14.11
2022-09-17T15:15:24.716Z,14.03
2022-09-17T15:17:52.876Z,14.08
2022-09-17T15:20:23.787Z,14.11
2022-09-17T15:23:24.063Z,14.05
2022-09-17T15:25:54.772Z,14.08
2022-09-17T15:28:33.968Z,14.08
2022-09-17T15:31:01.610Z,14.13
2022-09-17T15:33:30.218Z,13.84
2022-09-17T15:36:09.517Z,13.83
2022-09-17T15:38:39.071Z,14.07
2022-09-17T15:41:20.811Z,14.18
2022-09-17T15:43:49.513Z,14.10
2022-09-17T15:46:26.878Z,14.08
2022-09-17T15:48:55.586Z,14.04
2022-09-17T15:51:34.366Z,14.02
2022-09-17T15:54:06.351Z,14.02
2022-09-17T15:56:36.041Z,13.87
2022-09-17T15:59:24.893Z,13.79
2022-09-17T16:01:55.616Z,13.82
2022-09-17T16:04:31.096Z,13.90
2022-09-17T16:07:01.216Z,13.97
2022-09-17T16:09:38.030Z,14.09
2022-09-17T16:12:05.485Z,14.05
2022-09-17T16:14:32.683Z,13.94
2022-09-17T16:17:09.328Z,14.00
2022-09-17T16:19:36.824Z,14.02
2022-09-17T16:22:04.121Z,13.88
2022-09-17T16:24:31.322Z,13.84
2022-09-17T16:26:58.807Z,13.74
2022-09-17T16:29:26.092Z,13.76
2022-09-17T16:31:53.501Z,13.68
2022-09-17T16:34:20.755Z,13.73
2022-09-17T16:36:48.012Z,13.48
2022-09-17T16:39:15.272Z,13.46
2022-09-17T16:41:42.506Z,13.29
2022-09-17T16:44:09.747Z,12.94
2022-09-17T16:46:37.063Z,12.69
2022-09-17T16:49:04.363Z,12.61
2022-09-17T16:51:31.911Z,12.48
2022-09-17T16:53:59.382Z,12.41
2022-09-17T16:56:26.713Z,12.39
2022-09-17T16:58:55.805Z,12.33
2022-09-17T17:01:23.284Z,12.36
2022-09-17T17:03:53.380Z,12.41
2022-09-17T17:06:21.777Z,12.34
2022-09-17T17:08:49.254Z,12.38
2022-09-17T17:11:16.514Z,12.41
2022-09-17T17:13:44.501Z,12.43
2022-09-17T17:16:15.048Z,12.41
2022-09-17T17:18:44.074Z,12.47
2022-09-17T17:21:13.262Z,12.38
2022-09-17T17:23:43.445Z,12.31
2022-09-17T17:26:10.763Z,12.24
2022-09-17T17:28:37.998Z,12.28
2022-09-17T17:31:06.207Z,12.21
2022-09-17T17:33:34.108Z,12.15
2022-09-17T17:36:07.865Z,12.14
2022-09-17T17:38:36.788Z,12.11
2022-09-17T17:41:05.384Z,12.11
2022-09-17T17:43:33.473Z,12.07
2022-09-17T17:46:01.714Z,11.94
2022-09-17T17:48:29.979Z,12.03
2022-09-17T17:51:03.460Z,11.99
2022-09-17T17:53:31.986Z,12.01
2022-09-17T17:56:05.962Z,12.01
2022-09-17T17:58:34.068Z,11.96
2022-09-17T18:01:13.064Z,12.01
2022-09-17T18:03:40.343Z,11.98
2022-09-17T18:06:08.007Z,11.92
2022-09-17T18:08:37.754Z,11.85
2022-09-17T18:11:08.123Z,11.74
2022-09-17T18:13:36.889Z,11.70
2022-09-17T18:16:06.129Z,11.61
2022-09-17T18:18:37.275Z,11.64
2022-09-17T18:21:10.042Z,11.43
2022-09-17T18:23:39.564Z,11.35
2022-09-17T18:26:09.064Z,11.33
2022-09-17T18:28:36.848Z,11.26
2022-09-17T18:31:09.521Z,11.25
2022-09-17T18:33:36.869Z,11.16
2022-09-17T18:36:05.772Z,11.10
2022-09-17T18:38:33.336Z,10.90
2022-09-17T18:41:04.987Z,10.67
2022-09-17T18:43:33.723Z,10.45
2022-09-17T18:46:01.046Z,10.26
2022-09-17T18:48:28.360Z,10.14
2022-09-17T18:51:00.862Z,10.17
2022-09-17T18:53:30.284Z,10.15
2022-09-17T18:56:02.651Z,10.17
2022-09-17T18:58:29.924Z,10.13
2022-09-17T19:00:57.227Z,10.15
2022-09-17T19:03:24.536Z,10.13
2022-09-17T19:05:51.767Z,10.18
2022-09-17T19:08:23.044Z,10.15
2022-09-17T19:10:51.779Z,10.19
2022-09-17T19:13:19.589Z,10.22
2022-09-17T19:15:47.337Z,10.20
2022-09-17T19:18:14.650Z,10.19
2022-09-17T19:20:41.978Z,10.14
2022-09-17T19:23:09.505Z,10.19
2022-09-17T19:25:37.872Z,10.25
2022-09-17T19:28:05.334Z,10.16
2022-09-17T19:30:32.991Z,10.16
2022-09-17T19:33:00.598Z,10.21
2022-09-17T19:35:28.237Z,10.17
2022-09-17T19:37:58.997Z,10.24
2022-09-17T19:40:26.418Z,10.15
2022-09-17T19:42:55.212Z,10.26
2022-09-17T19:45:23.572Z,10.10
2022-09-17T19:47:51.441Z,10.13
2022-09-17T19:50:19.003Z,10.11
2022-09-17T19:52:46.465Z,10.17
2022-09-17T19:55:14.545Z,10.21
2022-09-17T19:57:41.805Z,10.15
2022-09-17T20:00:11.770Z,10.16
2022-09-17T20:02:39.166Z,10.17
2022-09-17T20:05:06.743Z,10.18
2022-09-17T20:07:34.043Z,10.20
2022-09-17T20:10:01.388Z,10.22
2022-09-17T20:12:29.217Z,10.13
2022-09-17T20:14:56.457Z,10.16
2022-09-17T20:17:24.092Z,10.22
2022-09-17T20:19:51.459Z,10.13
2022-09-17T20:22:18.671Z,10.15
2022-09-17T20:24:50.807Z,10.14
2022-09-17T20:27:18.359Z,10.16
2022-09-17T20:29:45.600Z,10.05
2022-09-17T20:32:12.947Z,9.97
2022-09-17T20:34:41.029Z,10.00
2022-09-17T20:37:13.664Z,10.02
2022-09-17T20:39:41.345Z,10.05
2022-09-17T20:42:09.274Z,9.97
2022-09-17T20:44:36.493Z,10.01
2022-09-17T20:47:03.877Z,10.02
2022-09-17T20:49:31.126Z,9.98
2022-09-17T20:51:58.424Z,10.05
2022-09-17T20:54:25.675Z,10.12
2022-09-17T20:56:52.913Z,10.06
2022-09-17T20:59:24.809Z,10.11
2022-09-17T21:01:53.602Z,10.13
2022-09-17T21:04:22.258Z,9.91
2022-09-17T21:06:53.344Z,10.00
2022-09-17T21:09:20.743Z,9.97
2022-09-17T21:11:48.920Z,10.01
2022-09-17T21:14:18.009Z,10.01
2022-09-17T21:16:46.347Z,9.83
2022-09-17T21:19:16.113Z,9.76
2022-09-17T21:21:43.839Z,9.72
2022-09-17T21:24:11.309Z,9.70
2022-09-17T21:26:38.678Z,9.67
2022-09-17T21:29:05.935Z,9.67
2022-09-17T21:31:36.748Z,9.67
2022-09-17T21:34:07.016Z,9.62
2022-09-17T21:36:36.712Z,9.62
2022-09-17T21:39:07.156Z,9.60
2022-09-17T21:41:37.564Z,9.54
2022-09-17T21:44:07.563Z,9.50
2022-09-17T21:46:36.464Z,9.50
2022-09-17T21:49:04.789Z,9.50
2022-09-17T21:51:39.988Z,9.44
2022-09-17T21:54:09.715Z,9.51
2022-09-17T21:56:37.410Z,9.54
2022-09-17T21:59:11.158Z,9.47
2022-09-17T22:01:41.363Z,9.52
2022-09-17T22:04:13.023Z,9.53
2022-09-17T22:06:41.208Z,9.49
2022-09-17T22:09:12.522Z,9.54
2022-09-17T22:11:40.025Z,9.54
2022-09-17T22:14:12.229Z,9.59
2022-09-17T22:16:42.079Z,9.49
2022-09-17T22:19:11.596Z,9.46
2022-09-17T22:21:45.980Z,9.47
2022-09-17T22:24:14.856Z,9.39
2022-09-17T22:26:47.574Z,9.36
2022-09-17T22:29:17.972Z,9.42
2022-09-17T22:31:45.929Z,9.47
2022-09-17T22:34:16.175Z,9.38
2022-09-17T22:36:43.576Z,9.32
2022-09-17T22:39:11.030Z,9.31
2022-09-17T22:41:45.347Z,9.32
2022-09-17T22:44:18.236Z,9.28
2022-09-17T22:46:47.666Z,9.36
2022-09-17T22:49:15.423Z,9.38
2022-09-17T22:51:45.446Z,9.33
2022-09-17T22:54:14.638Z,9.24
2022-09-17T22:56:42.685Z,9.29
2022-09-17T22:59:10.883Z,9.37
2022-09-17T23:01:39.916Z,9.39
2022-09-17T23:04:07.542Z,9.36
2022-09-17T23:06:38.025Z,9.40
2022-09-17T23:09:06.261Z,9.44
2022-09-17T23:11:38.679Z,9.36
2022-09-17T23:14:09.580Z,9.26
2022-09-17T23:16:46.031Z,9.20
2022-09-17T23:19:15.578Z,9.14
2022-09-17T23:21:43.303Z,9.09
2022-09-17T23:24:17.292Z,9.14
2022-09-17T23:26:44.895Z,9.11
2022-09-17T23:29:12.235Z,9.04
2022-09-17T23:31:40.205Z,9.01
2022-09-17T23:34:07.755Z,9.05
2022-09-17T23:36:36.909Z,9.03
2022-09-17T23:39:04.894Z,9.07
2022-09-17T23:41:37.233Z,9.12
2022-09-17T23:44:13.674Z,9.17
2022-09-17T23:46:41.489Z,9.16
2022-09-17T23:49:10.970Z,9.26
2022-09-17T23:51:38.275Z,9.16
2022-09-17T23:54:07.048Z,9.21
2022-09-17T23:56:34.631Z,9.21
2022-09-17T23:59:02.479Z,9.26
